createdAt,value
2023-03-21T00:01:09.236Z,1.49
2023-03-21T00:03:39.510Z,1.47
2023-03-21T00:06:11.589Z,1.43
2023-03-21T00:08:41.514Z,1.39
2023-03-21T00:11:13.820Z,1.35
2023-03-21T00:13:43.808Z,1.30
2023-03-21T00:16:20.755Z,1.31
2023-03-21T00:19:04.063Z,1.29
2023-03-21T00:21:46.579Z,1.26
2023-03-21T00:24:23.783Z,1.22
2023-03-21T00:26:53.687Z,1.17
2023-03-21T00:29:22.678Z,1.17
2023-03-21T00:31:54.305Z,1.18
2023-03-21T00:34:36.509Z,1.20
2023-03-21T00:37:19.756Z,1.22
2023-03-21T00:39:49.831Z,1.23
2023-03-21T00:42:19.624Z,1.28
2023-03-21T00:44:51.908Z,1.31
2023-03-21T00:47:20.985Z,1.34
2023-03-21T00:49:54.651Z,1.40
2023-03-21T00:52:39.935Z,1.46
2023-03-21T00:55:31.071Z,1.46
2023-03-21T00:58:02.305Z,1.48
2023-03-21T01:00:35.023Z,1.44
2023-03-21T01:03:23.793Z,1.42
2023-03-21T01:06:08.260Z,1.38
2023-03-21T01:08:53.428Z,1.41
2023-03-21T01:11:30.573Z,1.47
2023-03-21T01:14:37.066Z,1.50
2023-03-21T01:20:06.675Z,1.56
2023-03-21T01:22:36.646Z,1.51
2023-03-21T01:25:22.420Z,1.48
2023-03-21T01:28:12.823Z,1.50
2023-03-21T01:31:01.280Z,1.49
2023-03-21T01:33:34.230Z,1.51
2023-03-21T01:36:12.740Z,1.53
2023-03-21T01:41:44.205Z,1.70
2023-03-21T01:44:31.029Z,1.80
2023-03-21T01:47:11.097Z,1.82
2023-03-21T01:50:14.884Z,1.82
2023-03-21T01:53:22.375Z,1.86
2023-03-21T01:56:42.980Z,1.90
2023-03-21T01:59:39.108Z,1.93
2023-03-21T02:02:10.379Z,1.95
2023-03-21T02:04:51.393Z,1.94
2023-03-21T02:07:39.077Z,1.93
2023-03-21T02:10:18.953Z,1.90
2023-03-21T02:13:16.377Z,1.91
2023-03-21T02:15:51.512Z,1.92
2023-03-21T02:18:43.644Z,1.87
2023-03-21T02:21:47.569Z,1.81
2023-03-21T02:24:54.540Z,1.80
2023-03-21T02:27:32.735Z,1.78
2023-03-21T02:30:26.546Z,1.74
2023-03-21T02:33:23.190Z,1.74
2023-03-21T02:36:13.649Z,1.79
2023-03-21T02:39:07.456Z,1.81
2023-03-21T02:41:42.712Z,1.89
2023-03-21T02:44:36.633Z,1.95
2023-03-21T02:47:15.418Z,2.00
2023-03-21T02:50:10.989Z,2.05
2023-03-21T02:52:45.873Z,2.10
2023-03-21T02:55:22.460Z,2.14
2023-03-21T02:57:56.792Z,2.20
2023-03-21T03:00:30.727Z,2.24
2023-03-21T03:03:09.228Z,2.25
2023-03-21T03:05:44.600Z,2.27
2023-03-21T03:08:41.178Z,2.34
2023-03-21T03:11:25.162Z,2.42
2023-03-21T03:14:44.254Z,2.43
2023-03-21T03:17:20.913Z,2.49
2023-03-21T03:20:17.172Z,2.54
2023-03-21T03:23:05.968Z,2.54
2023-03-21T03:26:05.217Z,2.49
2023-03-21T03:28:42.527Z,2.42
2023-03-21T03:31:32.103Z,2.39
2023-03-21T03:34:07.712Z,2.38
2023-03-21T03:36:42.456Z,2.37
2023-03-21T03:39:15.729Z,2.38
2023-03-21T03:42:25.460Z,2.41
2023-03-21T03:44:44.331Z,2.49
2023-03-21T03:47:31.961Z,2.55
2023-03-21T03:50:29.316Z,2.61
2023-03-21T03:53:32.877Z,2.68
2023-03-21T03:56:02.925Z,2.74
2023-03-21T03:58:43.251Z,2.77
2023-03-21T04:01:18.443Z,2.80
2023-03-21T04:04:00.822Z,2.82
2023-03-21T04:07:00.133Z,2.87
2023-03-21T04:09:43.210Z,2.92
2023-03-21T04:12:18.996Z,2.98
2023-03-21T04:15:11.770Z,3.01
2023-03-21T04:17:47.422Z,3.03
2023-03-21T04:20:33.890Z,3.05
2023-03-21T04:23:13.016Z,3.09
2023-03-21T04:25:56.329Z,3.11
2023-03-21T04:28:33.770Z,3.12
2023-03-21T04:31:36.419Z,3.13
2023-03-21T04:34:13.006Z,3.15
2023-03-21T04:36:55.859Z,3.20
2023-03-21T04:39:28.649Z,3.26
2023-03-21T04:42:05.832Z,3.33
2023-03-21T04:44:34.909Z,3.40
2023-03-21T04:47:04.498Z,3.49
2023-03-21T04:56:41.841Z,3.83
2023-03-21T05:02:54.836Z,4.00
2023-03-21T05:06:09.134Z,4.11
2023-03-21T05:08:40.173Z,4.29
2023-03-21T05:11:38.307Z,4.48
2023-03-21T05:14:09.450Z,4.66
2023-03-21T05:16:50.727Z,4.80
2023-03-21T05:19:23.056Z,4.94
2023-03-21T05:21:55.512Z,5.06
2023-03-21T05:24:43.458Z,5.17
2023-03-21T05:27:36.030Z,5.29
2023-03-21T09:40:08.627Z,12.30
2023-03-21T10:18:39.240Z,13.45
2023-03-21T10:24:44.274Z,13.51
2023-03-21T11:54:01.725Z,15.88
2023-03-21T15:20:05.913Z,12.11
2023-03-21T15:22:46.209Z,12.08
2023-03-21T15:25:19.505Z,12.06
2023-03-21T15:27:54.079Z,12.02
2023-03-21T15:34:28.376Z,11.95
2023-03-21T15:37:48.093Z,11.90
2023-03-21T15:40:21.816Z,11.87
2023-03-21T15:42:51.210Z,11.82
2023-03-21T15:49:42.012Z,11.76
2023-03-21T15:52:28.232Z,11.72
2023-03-21T15:58:38.120Z,11.65
2023-03-21T16:01:34.055Z,11.61
2023-03-21T16:10:50.057Z,11.47
2023-03-21T16:13:25.815Z,11.42
2023-03-21T16:19:03.282Z,11.33
2023-03-21T16:24:46.060Z,11.23
2023-03-21T20:03:03.727Z,8.70
2023-03-21T21:48:31.939Z,7.84
2023-03-21T21:51:03.145Z,7.82
2023-03-21T21:53:34.063Z,7.80
2023-03-21T21:56:04.901Z,7.75
2023-03-21T21:58:39.501Z,7.73
2023-03-21T22:01:14.350Z,7.68
2023-03-21T22:03:47.104Z,7.64
2023-03-21T22:06:36.472Z,7.61
2023-03-21T22:09:07.305Z,7.56
2023-03-21T22:11:38.131Z,7.58
2023-03-21T22:14:20.550Z,7.55
2023-03-21T22:16:51.012Z,7.56
2023-03-21T22:19:20.458Z,7.58
2023-03-21T22:22:02.466Z,7.60
2023-03-21T22:24:32.442Z,7.60
2023-03-21T22:27:05.128Z,7.59
2023-03-21T22:29:34.963Z,7.58
2023-03-21T22:32:05.035Z,7.57
2023-03-21T22:34:33.896Z,7.56
2023-03-21T22:37:07.671Z,7.54
2023-03-21T22:39:37.700Z,7.54
2023-03-21T22:42:11.040Z,7.54
2023-03-21T22:44:44.595Z,7.54
2023-03-21T22:47:13.424Z,7.57
2023-03-21T22:49:48.093Z,7.59
2023-03-21T22:52:17.134Z,7.60
2023-03-21T22:54:50.080Z,7.60
2023-03-21T22:57:20.249Z,7.59
2023-03-21T23:00:08.697Z,7.57
2023-03-21T23:02:42.207Z,7.52
2023-03-21T23:05:12.727Z,7.53
2023-03-21T23:07:45.112Z,7.48
2023-03-21T23:10:14.674Z,7.48
2023-03-21T23:12:44.657Z,7.51
2023-03-21T23:15:36.810Z,7.52
2023-03-21T23:27:45.112Z,7.58
2023-03-21T23:30:36.185Z,7.57
2023-03-21T23:33:09.165Z,7.56
2023-03-21T23:42:12.501Z,7.56
2023-03-21T23:45:06.055Z,7.61
2023-03-21T23:47:35.251Z,7.63
2023-03-21T23:50:08.054Z,7.62
2023-03-21T23:52:57.386Z,7.66
2023-03-21T23:55:27.387Z,7.64
2023-03-21T23:58:19.431Z,7.60
